sensor_id;sensor_type;location;lat;lon;timestamp;temperature;humidity
12971;DHT22;6550;48.650;8.774;2024-02-21T00:00:12;10.70;99.90
12971;DHT22;6550;48.650;8.774;2024-02-21T00:02:39;11.20;99.90
12971;DHT22;6550;48.650;8.774;2024-02-21T00:05:06;11.00;99.90
12971;DHT22;6550;48.650;8.774;2024-02-21T00:07:35;11.00;99.90
12971;DHT22;6550;48.650;8.774;2024-02-21T00:10:04;11.10;99.90
12971;DHT22;6550;48.650;8.774;2024-02-21T00:12:31;10.70;99.90
12971;DHT22;6550;48.650;8.774;2024-02-21T00:14:58;11.10;99.90
12971;DHT22;6550;48.650;8.774;2024-02-21T00:17:27;11.10;99.90
12971;DHT22;6550;48.650;8.774;2024-02-21T00:19:56;11.20;99.90
12971;DHT22;6550;48.650;8.774;2024-02-21T00:22:25;11.00;99.90
12971;DHT22;6550;48.650;8.774;2024-02-21T00:24:55;10.80;99.90
12971;DHT22;6550;48.650;8.774;2024-02-21T00:27:22;11.00;99.90
12971;DHT22;6550;48.650;8.774;2024-02-21T00:29:51;10.90;99.90
12971;DHT22;6550;48.650;8.774;2024-02-21T00:32:18;11.20;99.90
12971;DHT22;6550;48.650;8.774;2024-02-21T00:34:45;11.00;99.90
12971;DHT22;6550;48.650;8.774;2024-02-21T00:37:14;11.50;99.90
12971;DHT22;6550;48.650;8.774;2024-02-21T00:39:41;11.50;99.90
12971;DHT22;6550;48.650;8.774;2024-02-21T00:42:08;10.90;99.90
12971;DHT22;6550;48.650;8.774;2024-02-21T00:44:38;11.60;99.90
12971;DHT22;6550;48.650;8.774;2024-02-21T00:49:31;11.10;99.90
12971;DHT22;6550;48.650;8.774;2024-02-21T00:52:01;11.10;99.90
12971;DHT22;6550;48.650;8.774;2024-02-21T00:54:27;11.20;99.90
12971;DHT22;6550;48.650;8.774;2024-02-21T00:57:13;11.50;99.90
12971;DHT22;6550;48.650;8.774;2024-02-21T00:59:40;11.60;99.90
12971;DHT22;6550;48.650;8.774;2024-02-21T01:02:11;11.80;99.90
12971;DHT22;6550;48.650;8.774;2024-02-21T01:04:38;11.30;99.90
12971;DHT22;6550;48.650;8.774;2024-02-21T01:07:07;11.30;99.90
12971;DHT22;6550;48.650;8.774;2024-02-21T01:09:34;11.40;99.90
12971;DHT22;6550;48.650;8.774;2024-02-21T01:12:01;11.50;99.90
12971;DHT22;6550;48.650;8.774;2024-02-21T01:14:30;11.80;99.90
12971;DHT22;6550;48.650;8.774;2024-02-21T01:17:00;11.70;99.90
12971;DHT22;6550;48.650;8.774;2024-02-21T01:19:28;11.60;99.90
12971;DHT22;6550;48.650;8.774;2024-02-21T01:21:54;11.50;99.90
12971;DHT22;6550;48.650;8.774;2024-02-21T01:24:23;11.20;99.90
12971;DHT22;6550;48.650;8.774;2024-02-21T01:26:53;11.20;99.90
12971;DHT22;6550;48.650;8.774;2024-02-21T01:29:22;11.20;99.90
12971;DHT22;6550;48.650;8.774;2024-02-21T01:31:49;11.30;99.90
12971;DHT22;6550;48.650;8.774;2024-02-21T01:34:20;11.40;99.90
12971;DHT22;6550;48.650;8.774;2024-02-21T01:36:50;11.40;99.90
12971;DHT22;6550;48.650;8.774;2024-02-21T01:39:16;11.40;99.90
12971;DHT22;6550;48.650;8.774;2024-02-21T01:41:44;11.10;99.90
12971;DHT22;6550;48.650;8.774;2024-02-21T01:44:10;10.90;99.90
12971;DHT22;6550;48.650;8.774;2024-02-21T01:46:37;11.40;99.90
12971;DHT22;6550;48.650;8.774;2024-02-21T01:49:06;11.20;99.90
12971;DHT22;6550;48.650;8.774;2024-02-21T01:51:33;11.20;99.90
12971;DHT22;6550;48.650;8.774;2024-02-21T01:54:01;11.20;99.90
12971;DHT22;6550;48.650;8.774;2024-02-21T01:56:30;11.10;99.90
12971;DHT22;6550;48.650;8.774;2024-02-21T01:58:57;11.30;99.90
12971;DHT22;6550;48.650;8.774;2024-02-21T02:01:27;11.20;99.90
12971;DHT22;6550;48.650;8.774;2024-02-21T02:03:55;11.10;99.90
12971;DHT22;6550;48.650;8.774;2024-02-21T02:06:22;11.30;99.90
12971;DHT22;6550;48.650;8.774;2024-02-21T02:08:53;11.30;99.90
12971;DHT22;6550;48.650;8.774;2024-02-21T02:11:21;11.70;99.90
12971;DHT22;6550;48.650;8.774;2024-02-21T02:13:50;11.40;99.90
12971;DHT22;6550;48.650;8.774;2024-02-21T02:16:19;11.60;99.90
12971;DHT22;6550;48.650;8.774;2024-02-21T02:18:48;11.60;99.90
12971;DHT22;6550;48.650;8.774;2024-02-21T02:21:39;11.80;99.90
12971;DHT22;6550;48.650;8.774;2024-02-21T02:24:12;11.70;99.90
12971;DHT22;6550;48.650;8.774;2024-02-21T02:26:40;11.50;99.90
12971;DHT22;6550;48.650;8.774;2024-02-21T02:29:07;11.80;99.90
12971;DHT22;6550;48.650;8.774;2024-02-21T02:31:34;11.80;99.90
12971;DHT22;6550;48.650;8.774;2024-02-21T02:34:02;11.80;99.90
12971;DHT22;6550;48.650;8.774;2024-02-21T02:36:31;12.00;99.90
12971;DHT22;6550;48.650;8.774;2024-02-21T02:39:00;11.70;99.90
12971;DHT22;6550;48.650;8.774;2024-02-21T02:41:27;11.80;99.90
12971;DHT22;6550;48.650;8.774;2024-02-21T02:46:23;11.60;99.90
12971;DHT22;6550;48.650;8.774;2024-02-21T02:51:20;12.20;99.90
12971;DHT22;6550;48.650;8.774;2024-02-21T02:53:47;12.20;99.90
12971;DHT22;6550;48.650;8.774;2024-02-21T02:56:16;12.20;99.90
12971;DHT22;6550;48.650;8.774;2024-02-21T02:58:43;12.00;99.90
12971;DHT22;6550;48.650;8.774;2024-02-21T03:01:10;11.90;99.90
12971;DHT22;6550;48.650;8.774;2024-02-21T03:03:40;12.00;99.90
12971;DHT22;6550;48.650;8.774;2024-02-21T03:06:09;11.70;99.90
12971;DHT22;6550;48.650;8.774;2024-02-21T03:08:41;11.30;99.90
12971;DHT22;6550;48.650;8.774;2024-02-21T03:11:09;11.40;99.90
12971;DHT22;6550;48.650;8.774;2024-02-21T03:13:37;11.60;99.90
12971;DHT22;6550;48.650;8.774;2024-02-21T03:16:05;11.70;99.90
12971;DHT22;6550;48.650;8.774;2024-02-21T03:18:36;11.70;99.90
12971;DHT22;6550;48.650;8.774;2024-02-21T03:21:03;11.60;99.90
12971;DHT22;6550;48.650;8.774;2024-02-21T03:23:34;11.70;99.90
12971;DHT22;6550;48.650;8.774;2024-02-21T03:26:03;11.30;99.90
12971;DHT22;6550;48.650;8.774;2024-02-21T03:28:30;11.60;99.90
12971;DHT22;6550;48.650;8.774;2024-02-21T03:31:00;11.70;99.90
12971;DHT22;6550;48.650;8.774;2024-02-21T03:33:29;11.60;99.90
12971;DHT22;6550;48.650;8.774;2024-02-21T03:35:58;11.60;99.90
12971;DHT22;6550;48.650;8.774;2024-02-21T03:38:24;11.70;99.90
12971;DHT22;6550;48.650;8.774;2024-02-21T03:40:52;11.50;99.90
12971;DHT22;6550;48.650;8.774;2024-02-21T03:43:19;11.40;99.90
12971;DHT22;6550;48.650;8.774;2024-02-21T03:48:17;11.50;99.90
12971;DHT22;6550;48.650;8.774;2024-02-21T03:50:47;10.90;99.90
12971;DHT22;6550;48.650;8.774;2024-02-21T03:53:16;11.00;99.90
12971;DHT22;6550;48.650;8.774;2024-02-21T03:55:42;11.20;99.90
12971;DHT22;6550;48.650;8.774;2024-02-21T03:58:09;11.00;99.90
12971;DHT22;6550;48.650;8.774;2024-02-21T04:00:36;11.30;99.90
12971;DHT22;6550;48.650;8.774;2024-02-21T04:03:03;11.20;99.90
12971;DHT22;6550;48.650;8.774;2024-02-21T04:05:30;11.40;99.90
12971;DHT22;6550;48.650;8.774;2024-02-21T04:07:56;11.30;99.90
12971;DHT22;6550;48.650;8.774;2024-02-21T04:10:23;11.60;99.90
12971;DHT22;6550;48.650;8.774;2024-02-21T04:12:50;11.50;99.90
12971;DHT22;6550;48.650;8.774;2024-02-21T04:15:19;11.50;99.90
12971;DHT22;6550;48.650;8.774;2024-02-21T04:17:46;11.20;99.90
12971;DHT22;6550;48.650;8.774;2024-02-21T04:20:16;11.60;99.90
12971;DHT22;6550;48.650;8.774;2024-02-21T04:25:16;11.60;99.90
12971;DHT22;6550;48.650;8.774;2024-02-21T04:27:46;11.20;99.90
12971;DHT22;6550;48.650;8.774;2024-02-21T04:30:15;10.90;99.90
12971;DHT22;6550;48.650;8.774;2024-02-21T04:32:42;10.70;99.90
12971;DHT22;6550;48.650;8.774;2024-02-21T04:35:09;10.70;99.90
12971;DHT22;6550;48.650;8.774;2024-02-21T04:40:06;11.10;99.90
12971;DHT22;6550;48.650;8.774;2024-02-21T04:42:33;11.00;99.90
12971;DHT22;6550;48.650;8.774;2024-02-21T04:45:02;10.80;99.90
12971;DHT22;6550;48.650;8.774;2024-02-21T04:47:28;11.00;99.90
12971;DHT22;6550;48.650;8.774;2024-02-21T04:49:56;10.90;99.90
12971;DHT22;6550;48.650;8.774;2024-02-21T04:52:28;10.70;99.90
12971;DHT22;6550;48.650;8.774;2024-02-21T04:54:55;11.00;99.90
12971;DHT22;6550;48.650;8.774;2024-02-21T04:57:22;10.80;99.90
12971;DHT22;6550;48.650;8.774;2024-02-21T04:59:51;10.80;99.90
12971;DHT22;6550;48.650;8.774;2024-02-21T05:04:46;10.70;99.90
12971;DHT22;6550;48.650;8.774;2024-02-21T05:07:16;10.70;99.90
12971;DHT22;6550;48.650;8.774;2024-02-21T05:14:37;11.20;99.90
12971;DHT22;6550;48.650;8.774;2024-02-21T05:17:07;11.20;99.90
12971;DHT22;6550;48.650;8.774;2024-02-21T05:19:36;10.80;99.90
12971;DHT22;6550;48.650;8.774;2024-02-21T05:22:05;10.70;99.90
12971;DHT22;6550;48.650;8.774;2024-02-21T05:24:32;10.90;99.90
12971;DHT22;6550;48.650;8.774;2024-02-21T05:26:59;10.60;99.90
12971;DHT22;6550;48.650;8.774;2024-02-21T05:29:25;10.50;99.90
12971;DHT22;6550;48.650;8.774;2024-02-21T05:34:33;10.70;99.90
12971;DHT22;6550;48.650;8.774;2024-02-21T05:37:01;10.50;99.90
12971;DHT22;6550;48.650;8.774;2024-02-21T05:39:27;10.60;99.90
12971;DHT22;6550;48.650;8.774;2024-02-21T05:41:56;10.60;99.90
12971;DHT22;6550;48.650;8.774;2024-02-21T05:44:23;10.40;99.90
12971;DHT22;6550;48.650;8.774;2024-02-21T05:46:50;10.70;99.90
12971;DHT22;6550;48.650;8.774;2024-02-21T05:49:16;10.40;99.90
12971;DHT22;6550;48.650;8.774;2024-02-21T05:51:43;10.30;99.90
12971;DHT22;6550;48.650;8.774;2024-02-21T05:54:10;10.30;99.90
12971;DHT22;6550;48.650;8.774;2024-02-21T05:56:39;10.90;99.90
12971;DHT22;6550;48.650;8.774;2024-02-21T05:59:06;10.70;99.90
12971;DHT22;6550;48.650;8.774;2024-02-21T06:01:35;10.40;99.90
12971;DHT22;6550;48.650;8.774;2024-02-21T06:04:02;10.90;99.90
12971;DHT22;6550;48.650;8.774;2024-02-21T06:06:31;10.90;99.90
12971;DHT22;6550;48.650;8.774;2024-02-21T06:08:58;10.80;99.90
12971;DHT22;6550;48.650;8.774;2024-02-21T06:11:26;10.60;99.90
12971;DHT22;6550;48.650;8.774;2024-02-21T06:13:55;11.40;99.90
12971;DHT22;6550;48.650;8.774;2024-02-21T06:16:25;11.80;99.90
12971;DHT22;6550;48.650;8.774;2024-02-21T06:18:51;11.30;99.90
12971;DHT22;6550;48.650;8.774;2024-02-21T06:21:23;10.80;99.90
12971;DHT22;6550;48.650;8.774;2024-02-21T06:23:50;10.20;99.90
12971;DHT22;6550;48.650;8.774;2024-02-21T06:26:19;10.00;99.90
12971;DHT22;6550;48.650;8.774;2024-02-21T06:28:45;10.90;99.90
12971;DHT22;6550;48.650;8.774;2024-02-21T06:31:18;11.30;99.90
12971;DHT22;6550;48.650;8.774;2024-02-21T06:33:44;11.00;99.90
12971;DHT22;6550;48.650;8.774;2024-02-21T06:36:14;10.90;99.90
12971;DHT22;6550;48.650;8.774;2024-02-21T06:38:43;10.60;99.90
12971;DHT22;6550;48.650;8.774;2024-02-21T06:41:18;11.10;99.90
12971;DHT22;6550;48.650;8.774;2024-02-21T06:43:46;11.30;99.90
12971;DHT22;6550;48.650;8.774;2024-02-21T06:46:24;11.10;99.90
12971;DHT22;6550;48.650;8.774;2024-02-21T06:48:54;11.20;99.90
12971;DHT22;6550;48.650;8.774;2024-02-21T06:51:23;11.30;99.90
12971;DHT22;6550;48.650;8.774;2024-02-21T06:53:52;11.50;99.90
12971;DHT22;6550;48.650;8.774;2024-02-21T06:56:24;11.70;99.90
12971;DHT22;6550;48.650;8.774;2024-02-21T06:58:56;11.60;99.90
12971;DHT22;6550;48.650;8.774;2024-02-21T07:03:51;10.60;99.90
12971;DHT22;6550;48.650;8.774;2024-02-21T07:08:47;9.40;99.90
12971;DHT22;6550;48.650;8.774;2024-02-21T07:13:41;9.10;99.90
12971;DHT22;6550;48.650;8.774;2024-02-21T07:16:08;9.10;99.90
12971;DHT22;6550;48.650;8.774;2024-02-21T07:18:35;9.20;99.90
12971;DHT22;6550;48.650;8.774;2024-02-21T07:21:01;8.60;99.90
12971;DHT22;6550;48.650;8.774;2024-02-21T07:25:56;8.90;99.90
12971;DHT22;6550;48.650;8.774;2024-02-21T07:28:25;9.00;99.90
12971;DHT22;6550;48.650;8.774;2024-02-21T07:33:21;9.00;99.90
12971;DHT22;6550;48.650;8.774;2024-02-21T07:35:48;8.90;99.90
12971;DHT22;6550;48.650;8.774;2024-02-21T07:38:15;9.00;99.90
12971;DHT22;6550;48.650;8.774;2024-02-21T07:40:45;9.10;99.90
12971;DHT22;6550;48.650;8.774;2024-02-21T07:43:12;9.10;99.90
12971;DHT22;6550;48.650;8.774;2024-02-21T07:48:07;9.20;99.90
12971;DHT22;6550;48.650;8.774;2024-02-21T07:53:03;9.30;99.90
12971;DHT22;6550;48.650;8.774;2024-02-21T07:55:30;9.30;99.90
12971;DHT22;6550;48.650;8.774;2024-02-21T08:00:24;9.40;99.90
12971;DHT22;6550;48.650;8.774;2024-02-21T08:05:21;9.30;99.90
12971;DHT22;6550;48.650;8.774;2024-02-21T08:07:52;9.50;99.90
12971;DHT22;6550;48.650;8.774;2024-02-21T08:10:24;9.90;99.90
12971;DHT22;6550;48.650;8.774;2024-02-21T08:15:20;9.80;99.90
12971;DHT22;6550;48.650;8.774;2024-02-21T08:17:53;9.80;99.90
12971;DHT22;6550;48.650;8.774;2024-02-21T08:22:47;10.10;99.90
12971;DHT22;6550;48.650;8.774;2024-02-21T08:25:14;10.20;99.90
12971;DHT22;6550;48.650;8.774;2024-02-21T08:27:40;10.20;99.90
12971;DHT22;6550;48.650;8.774;2024-02-21T08:30:14;10.30;99.90
12971;DHT22;6550;48.650;8.774;2024-02-21T08:32:40;10.60;99.90
12971;DHT22;6550;48.650;8.774;2024-02-21T08:35:08;10.50;99.90
12971;DHT22;6550;48.650;8.774;2024-02-21T08:37:35;10.40;99.90
12971;DHT22;6550;48.650;8.774;2024-02-21T08:40:02;10.60;99.90
12971;DHT22;6550;48.650;8.774;2024-02-21T08:42:40;10.60;99.90
12971;DHT22;6550;48.650;8.774;2024-02-21T08:45:08;10.70;99.90
12971;DHT22;6550;48.650;8.774;2024-02-21T08:47:34;10.70;99.90
12971;DHT22;6550;48.650;8.774;2024-02-21T08:50:04;10.30;99.90
12971;DHT22;6550;48.650;8.774;2024-02-21T08:52:44;10.80;99.90
12971;DHT22;6550;48.650;8.774;2024-02-21T08:55:14;11.00;99.90
12971;DHT22;6550;48.650;8.774;2024-02-21T09:02:44;11.00;99.90
12971;DHT22;6550;48.650;8.774;2024-02-21T09:05:13;11.20;99.90
12971;DHT22;6550;48.650;8.774;2024-02-21T09:07:42;11.00;99.90
12971;DHT22;6550;48.650;8.774;2024-02-21T09:10:09;11.20;99.90
12971;DHT22;6550;48.650;8.774;2024-02-21T09:12:36;11.20;99.90
12971;DHT22;6550;48.650;8.774;2024-02-21T09:15:03;11.20;99.90
12971;DHT22;6550;48.650;8.774;2024-02-21T09:17:30;11.20;99.90
12971;DHT22;6550;48.650;8.774;2024-02-21T09:20:00;11.50;99.90
12971;DHT22;6550;48.650;8.774;2024-02-21T09:25:01;11.50;99.90
12971;DHT22;6550;48.650;8.774;2024-02-21T09:27:30;11.70;99.90
12971;DHT22;6550;48.650;8.774;2024-02-21T09:29:57;11.80;99.90
12971;DHT22;6550;48.650;8.774;2024-02-21T09:32:24;11.80;99.90
12971;DHT22;6550;48.650;8.774;2024-02-21T09:34:51;11.90;99.90
12971;DHT22;6550;48.650;8.774;2024-02-21T09:37:19;12.00;99.90
12971;DHT22;6550;48.650;8.774;2024-02-21T09:42:16;12.40;99.90
12971;DHT22;6550;48.650;8.774;2024-02-21T09:44:48;12.80;99.90
12971;DHT22;6550;48.650;8.774;2024-02-21T09:47:24;12.70;99.90
12971;DHT22;6550;48.650;8.774;2024-02-21T09:52:26;12.70;99.90
12971;DHT22;6550;48.650;8.774;2024-02-21T09:54:54;12.90;99.90
12971;DHT22;6550;48.650;8.774;2024-02-21T09:57:22;13.50;99.90
12971;DHT22;6550;48.650;8.774;2024-02-21T09:59:52;13.20;99.90
12971;DHT22;6550;48.650;8.774;2024-02-21T10:02:23;13.30;99.90
12971;DHT22;6550;48.650;8.774;2024-02-21T10:04:50;13.60;99.90
12971;DHT22;6550;48.650;8.774;2024-02-21T10:07:17;13.60;99.90
12971;DHT22;6550;48.650;8.774;2024-02-21T10:09:49;13.80;99.90
12971;DHT22;6550;48.650;8.774;2024-02-21T10:12:26;13.60;99.90
12971;DHT22;6550;48.650;8.774;2024-02-21T10:17:34;13.80;99.90
12971;DHT22;6550;48.650;8.774;2024-02-21T10:20:09;13.80;99.90
12971;DHT22;6550;48.650;8.774;2024-02-21T10:22:38;13.90;99.90
12971;DHT22;6550;48.650;8.774;2024-02-21T10:25:11;13.90;99.90
12971;DHT22;6550;48.650;8.774;2024-02-21T10:27:39;14.40;99.90
12971;DHT22;6550;48.650;8.774;2024-02-21T10:30:13;14.10;99.90
12971;DHT22;6550;48.650;8.774;2024-02-21T10:32:53;13.90;99.90
12971;DHT22;6550;48.650;8.774;2024-02-21T10:35:31;14.20;99.90
12971;DHT22;6550;48.650;8.774;2024-02-21T10:37:59;14.30;99.90
12971;DHT22;6550;48.650;8.774;2024-02-21T10:40:32;14.30;99.90
12971;DHT22;6550;48.650;8.774;2024-02-21T10:43:01;14.40;99.90
12971;DHT22;6550;48.650;8.774;2024-02-21T10:45:32;14.50;99.90
12971;DHT22;6550;48.650;8.774;2024-02-21T10:48:11;14.50;99.90
12971;DHT22;6550;48.650;8.774;2024-02-21T10:56:41;14.70;99.90
12971;DHT22;6550;48.650;8.774;2024-02-21T10:59:11;14.70;99.90
12971;DHT22;6550;48.650;8.774;2024-02-21T11:01:39;14.80;99.90
12971;DHT22;6550;48.650;8.774;2024-02-21T11:04:08;14.80;99.90
12971;DHT22;6550;48.650;8.774;2024-02-21T11:06:37;14.90;99.90
12971;DHT22;6550;48.650;8.774;2024-02-21T11:11:38;15.00;99.90
12971;DHT22;6550;48.650;8.774;2024-02-21T11:14:08;15.20;99.90
12971;DHT22;6550;48.650;8.774;2024-02-21T11:16:37;15.10;99.90
12971;DHT22;6550;48.650;8.774;2024-02-21T11:19:10;15.20;99.90
12971;DHT22;6550;48.650;8.774;2024-02-21T11:21:45;15.40;99.90
12971;DHT22;6550;48.650;8.774;2024-02-21T11:24:26;15.20;99.90
12971;DHT22;6550;48.650;8.774;2024-02-21T11:26:54;15.30;99.90
12971;DHT22;6550;48.650;8.774;2024-02-21T11:29:25;15.20;99.90
12971;DHT22;6550;48.650;8.774;2024-02-21T11:31:52;15.40;99.90
12971;DHT22;6550;48.650;8.774;2024-02-21T11:36:51;15.60;99.90
12971;DHT22;6550;48.650;8.774;2024-02-21T11:39:25;15.50;99.90
12971;DHT22;6550;48.650;8.774;2024-02-21T11:42:06;15.80;99.90
12971;DHT22;6550;48.650;8.774;2024-02-21T11:44:35;15.90;99.90
12971;DHT22;6550;48.650;8.774;2024-02-21T11:47:05;15.80;99.90
12971;DHT22;6550;48.650;8.774;2024-02-21T11:49:42;15.80;99.90
12971;DHT22;6550;48.650;8.774;2024-02-21T11:52:14;15.80;99.90
12971;DHT22;6550;48.650;8.774;2024-02-21T11:54:48;15.90;99.90
12971;DHT22;6550;48.650;8.774;2024-02-21T11:57:15;16.20;99.90
12971;DHT22;6550;48.650;8.774;2024-02-21T11:59:47;16.00;99.90
12971;DHT22;6550;48.650;8.774;2024-02-21T12:02:21;15.90;99.90
12971;DHT22;6550;48.650;8.774;2024-02-21T12:07:18;16.10;99.70
12971;DHT22;6550;48.650;8.774;2024-02-21T12:12:12;16.10;99.50
12971;DHT22;6550;48.650;8.774;2024-02-21T12:14:39;16.30;99.60
12971;DHT22;6550;48.650;8.774;2024-02-21T12:17:06;16.10;98.80
12971;DHT22;6550;48.650;8.774;2024-02-21T12:19:36;16.50;98.60
12971;DHT22;6550;48.650;8.774;2024-02-21T12:22:09;16.10;98.70
12971;DHT22;6550;48.650;8.774;2024-02-21T12:24:44;16.40;98.40
12971;DHT22;6550;48.650;8.774;2024-02-21T12:27:14;16.20;98.10
12971;DHT22;6550;48.650;8.774;2024-02-21T12:29:43;16.20;98.30
12971;DHT22;6550;48.650;8.774;2024-02-21T12:32:10;16.10;98.00
12971;DHT22;6550;48.650;8.774;2024-02-21T12:34:39;16.20;97.30
12971;DHT22;6550;48.650;8.774;2024-02-21T12:37:21;15.90;98.30
12971;DHT22;6550;48.650;8.774;2024-02-21T12:39:48;16.10;97.80
12971;DHT22;6550;48.650;8.774;2024-02-21T12:42:15;16.00;97.80
12971;DHT22;6550;48.650;8.774;2024-02-21T12:47:12;16.10;97.60
12971;DHT22;6550;48.650;8.774;2024-02-21T12:54:41;16.10;97.20
12971;DHT22;6550;48.650;8.774;2024-02-21T12:57:11;16.30;96.80
12971;DHT22;6550;48.650;8.774;2024-02-21T13:02:06;16.30;95.90
12971;DHT22;6550;48.650;8.774;2024-02-21T13:09:29;16.10;95.90
12971;DHT22;6550;48.650;8.774;2024-02-21T13:11:56;16.20;96.20
12971;DHT22;6550;48.650;8.774;2024-02-21T13:14:25;16.90;96.40
12971;DHT22;6550;48.650;8.774;2024-02-21T13:16:55;16.00;96.00
12971;DHT22;6550;48.650;8.774;2024-02-21T13:21:49;16.10;95.90
12971;DHT22;6550;48.650;8.774;2024-02-21T13:26:48;16.00;96.30
12971;DHT22;6550;48.650;8.774;2024-02-21T13:31:49;16.20;95.90
12971;DHT22;6550;48.650;8.774;2024-02-21T13:34:18;16.10;96.50
12971;DHT22;6550;48.650;8.774;2024-02-21T13:39:15;16.20;96.10
12971;DHT22;6550;48.650;8.774;2024-02-21T13:41:43;16.00;95.50
12971;DHT22;6550;48.650;8.774;2024-02-21T13:44:14;16.00;95.30
12971;DHT22;6550;48.650;8.774;2024-02-21T13:46:44;16.00;95.70
12971;DHT22;6550;48.650;8.774;2024-02-21T13:49:11;16.10;96.00
12971;DHT22;6550;48.650;8.774;2024-02-21T13:54:07;16.10;95.40
12971;DHT22;6550;48.650;8.774;2024-02-21T13:56:40;15.90;95.10
12971;DHT22;6550;48.650;8.774;2024-02-21T14:04:05;15.80;95.00
12971;DHT22;6550;48.650;8.774;2024-02-21T14:06:32;15.70;95.70
12971;DHT22;6550;48.650;8.774;2024-02-21T14:11:29;15.80;95.40
12971;DHT22;6550;48.650;8.774;2024-02-21T14:13:57;15.70;95.70
12971;DHT22;6550;48.650;8.774;2024-02-21T14:16:26;15.60;96.70
12971;DHT22;6550;48.650;8.774;2024-02-21T14:18:56;15.80;96.10
12971;DHT22;6550;48.650;8.774;2024-02-21T14:21:25;16.00;95.60
12971;DHT22;6550;48.650;8.774;2024-02-21T14:23:57;15.70;95.70
12971;DHT22;6550;48.650;8.774;2024-02-21T14:26:23;15.60;95.90
12971;DHT22;6550;48.650;8.774;2024-02-21T14:31:20;15.50;95.10
12971;DHT22;6550;48.650;8.774;2024-02-21T14:33:47;15.30;95.00
12971;DHT22;6550;48.650;8.774;2024-02-21T14:36:19;15.20;95.20
12971;DHT22;6550;48.650;8.774;2024-02-21T14:38:50;15.20;95.50
12971;DHT22;6550;48.650;8.774;2024-02-21T14:41:19;15.00;96.00
12971;DHT22;6550;48.650;8.774;2024-02-21T14:48:41;15.20;96.10
12971;DHT22;6550;48.650;8.774;2024-02-21T14:51:07;14.90;95.70
12971;DHT22;6550;48.650;8.774;2024-02-21T14:53:39;15.00;96.10
12971;DHT22;6550;48.650;8.774;2024-02-21T14:56:12;14.90;95.90
12971;DHT22;6550;48.650;8.774;2024-02-21T14:58:42;14.80;95.70
12971;DHT22;6550;48.650;8.774;2024-02-21T15:01:11;14.90;95.30
12971;DHT22;6550;48.650;8.774;2024-02-21T15:06:07;14.90;96.30
12971;DHT22;6550;48.650;8.774;2024-02-21T15:08:33;14.90;96.60
12971;DHT22;6550;48.650;8.774;2024-02-21T15:11:00;14.80;95.60
12971;DHT22;6550;48.650;8.774;2024-02-21T15:13:27;14.80;95.30
12971;DHT22;6550;48.650;8.774;2024-02-21T15:15:56;14.80;94.90
12971;DHT22;6550;48.650;8.774;2024-02-21T15:20:55;14.70;94.90
12971;DHT22;6550;48.650;8.774;2024-02-21T15:23:22;14.70;95.70
12971;DHT22;6550;48.650;8.774;2024-02-21T15:25:50;14.50;95.20
12971;DHT22;6550;48.650;8.774;2024-02-21T15:28:17;14.50;94.90
12971;DHT22;6550;48.650;8.774;2024-02-21T15:30:44;14.50;94.90
12971;DHT22;6550;48.650;8.774;2024-02-21T15:33:11;14.60;95.00
12971;DHT22;6550;48.650;8.774;2024-02-21T15:35:40;14.50;94.80
12971;DHT22;6550;48.650;8.774;2024-02-21T15:38:08;14.40;95.30
12971;DHT22;6550;48.650;8.774;2024-02-21T15:43:03;14.20;95.60
12971;DHT22;6550;48.650;8.774;2024-02-21T15:48:00;14.20;96.70
12971;DHT22;6550;48.650;8.774;2024-02-21T15:50:29;14.20;96.60
12971;DHT22;6550;48.650;8.774;2024-02-21T15:52:56;14.20;96.60
12971;DHT22;6550;48.650;8.774;2024-02-21T15:55:26;14.20;95.80
12971;DHT22;6550;48.650;8.774;2024-02-21T15:57:55;14.20;96.10
12971;DHT22;6550;48.650;8.774;2024-02-21T16:00:24;14.40;96.60
12971;DHT22;6550;48.650;8.774;2024-02-21T16:02:50;14.30;95.70
12971;DHT22;6550;48.650;8.774;2024-02-21T16:05:20;14.10;95.80
12971;DHT22;6550;48.650;8.774;2024-02-21T16:10:16;13.80;96.50
12971;DHT22;6550;48.650;8.774;2024-02-21T16:12:43;13.90;97.00
12971;DHT22;6550;48.650;8.774;2024-02-21T16:15:13;13.70;97.20
12971;DHT22;6550;48.650;8.774;2024-02-21T16:17:41;13.80;97.40
12971;DHT22;6550;48.650;8.774;2024-02-21T16:20:08;13.60;97.20
12971;DHT22;6550;48.650;8.774;2024-02-21T16:22:42;13.70;97.30
12971;DHT22;6550;48.650;8.774;2024-02-21T16:25:11;13.70;97.10
12971;DHT22;6550;48.650;8.774;2024-02-21T16:27:38;13.60;96.90
12971;DHT22;6550;48.650;8.774;2024-02-21T16:30:07;13.40;97.10
12971;DHT22;6550;48.650;8.774;2024-02-21T16:32:39;13.50;97.20
12971;DHT22;6550;48.650;8.774;2024-02-21T16:35:10;13.30;97.40
12971;DHT22;6550;48.650;8.774;2024-02-21T16:40:05;13.60;98.00
12971;DHT22;6550;48.650;8.774;2024-02-21T16:42:34;13.10;98.00
12971;DHT22;6550;48.650;8.774;2024-02-21T16:45:01;13.10;98.50
12971;DHT22;6550;48.650;8.774;2024-02-21T16:47:27;13.20;98.20
12971;DHT22;6550;48.650;8.774;2024-02-21T16:52:24;13.10;97.70
12971;DHT22;6550;48.650;8.774;2024-02-21T17:02:19;12.90;99.40
12971;DHT22;6550;48.650;8.774;2024-02-21T17:07:16;12.70;99.60
12971;DHT22;6550;48.650;8.774;2024-02-21T17:09:43;13.50;99.80
12971;DHT22;6550;48.650;8.774;2024-02-21T17:12:12;12.70;99.90
12971;DHT22;6550;48.650;8.774;2024-02-21T17:19:40;12.60;99.90
12971;DHT22;6550;48.650;8.774;2024-02-21T17:27:04;12.30;99.90
12971;DHT22;6550;48.650;8.774;2024-02-21T17:31:58;12.40;99.90
12971;DHT22;6550;48.650;8.774;2024-02-21T17:34:25;12.30;99.90
12971;DHT22;6550;48.650;8.774;2024-02-21T17:36:57;12.20;99.90
12971;DHT22;6550;48.650;8.774;2024-02-21T17:39:26;12.10;99.90
12971;DHT22;6550;48.650;8.774;2024-02-21T17:41:55;12.10;99.90
12971;DHT22;6550;48.650;8.774;2024-02-21T17:44:27;12.20;99.90
12971;DHT22;6550;48.650;8.774;2024-02-21T17:46:55;12.20;99.90
12971;DHT22;6550;48.650;8.774;2024-02-21T17:49:24;12.20;99.90
12971;DHT22;6550;48.650;8.774;2024-02-21T17:51:51;12.00;99.90
12971;DHT22;6550;48.650;8.774;2024-02-21T17:54:18;11.90;99.90
12971;DHT22;6550;48.650;8.774;2024-02-21T17:56:47;11.90;99.90
12971;DHT22;6550;48.650;8.774;2024-02-21T17:59:14;11.80;99.90
12971;DHT22;6550;48.650;8.774;2024-02-21T18:01:41;12.00;99.90
12971;DHT22;6550;48.650;8.774;2024-02-21T18:06:35;12.10;99.90
12971;DHT22;6550;48.650;8.774;2024-02-21T18:14:01;11.90;99.90
12971;DHT22;6550;48.650;8.774;2024-02-21T18:16:31;11.80;99.90
12971;DHT22;6550;48.650;8.774;2024-02-21T18:19:01;11.70;99.90
12971;DHT22;6550;48.650;8.774;2024-02-21T18:21:30;11.80;99.90
12971;DHT22;6550;48.650;8.774;2024-02-21T18:28:56;11.70;99.90
12971;DHT22;6550;48.650;8.774;2024-02-21T18:31:23;12.00;99.90
12971;DHT22;6550;48.650;8.774;2024-02-21T18:33:49;12.10;99.90
12971;DHT22;6550;48.650;8.774;2024-02-21T18:38:46;11.70;99.90
12971;DHT22;6550;48.650;8.774;2024-02-21T18:41:13;11.80;99.90
12971;DHT22;6550;48.650;8.774;2024-02-21T18:46:09;11.80;99.90
12971;DHT22;6550;48.650;8.774;2024-02-21T18:48:36;11.50;99.90
12971;DHT22;6550;48.650;8.774;2024-02-21T18:51:09;11.70;99.90
12971;DHT22;6550;48.650;8.774;2024-02-21T18:53:35;11.70;99.90
12971;DHT22;6550;48.650;8.774;2024-02-21T18:56:02;11.70;99.90
12971;DHT22;6550;48.650;8.774;2024-02-21T18:58:38;11.70;99.90